sensor_id;sensor_type;location;lat;lon;timestamp;pressure;altitude;pressure_sealevel;temperature;humidity
43878;BME280;29815;48.184;11.268;2023-02-19T00:00:24;96013.38;;;10.08;100.00
43878;BME280;29815;48.184;11.268;2023-02-19T00:02:55;96014.44;;;10.07;100.00
43878;BME280;29815;48.184;11.268;2023-02-19T00:05:25;96018.69;;;10.03;100.00
43878;BME280;29815;48.184;11.268;2023-02-19T00:07:55;96017.38;;;10.06;100.00
43878;BME280;29815;48.184;11.268;2023-02-19T00:10:24;96014.69;;;10.06;100.00
43878;BME280;29815;48.184;11.268;2023-02-19T00:12:54;96017.94;;;10.08;100.00
43878;BME280;29815;48.184;11.268;2023-02-19T00:15:23;96002.63;;;10.08;100.00
43878;BME280;29815;48.184;11.268;2023-02-19T00:17:54;96007.19;;;10.08;100.00
43878;BME280;29815;48.184;11.268;2023-02-19T00:20:24;96005.06;;;10.10;100.00
43878;BME280;29815;48.184;11.268;2023-02-19T00:22:53;96010.19;;;10.16;100.00
43878;BME280;29815;48.184;11.268;2023-02-19T00:25:23;96001.81;;;10.08;100.00
43878;BME280;29815;48.184;11.268;2023-02-19T00:27:52;95998.31;;;10.12;100.00
43878;BME280;29815;48.184;11.268;2023-02-19T00:30:23;95997.78;;;10.10;100.00
43878;BME280;29815;48.184;11.268;2023-02-19T00:32:52;95993.69;;;10.03;100.00
43878;BME280;29815;48.184;11.268;2023-02-19T00:35:23;95991.03;;;10.08;100.00
43878;BME280;29815;48.184;11.268;2023-02-19T00:37:53;95986.72;;;10.07;100.00
43878;BME280;29815;48.184;11.268;2023-02-19T00:40:22;95995.56;;;10.02;100.00
43878;BME280;29815;48.184;11.268;2023-02-19T00:42:53;95982.41;;;10.06;100.00
43878;BME280;29815;48.184;11.268;2023-02-19T00:45:23;95980.31;;;10.13;100.00
43878;BME280;29815;48.184;11.268;2023-02-19T00:47:52;95983.56;;;10.15;100.00
43878;BME280;29815;48.184;11.268;2023-02-19T00:50:24;95989.75;;;10.15;100.00
43878;BME280;29815;48.184;11.268;2023-02-19T00:52:53;95980.06;;;10.14;100.00
43878;BME280;29815;48.184;11.268;2023-02-19T00:55:23;95977.09;;;10.11;100.00
43878;BME280;29815;48.184;11.268;2023-02-19T00:57:52;95974.69;;;10.14;100.00
43878;BME280;29815;48.184;11.268;2023-02-19T01:00:22;95985.16;;;10.11;100.00
43878;BME280;29815;48.184;11.268;2023-02-19T01:02:52;96001.00;;;10.12;100.00
43878;BME280;29815;48.184;11.268;2023-02-19T01:05:27;95971.47;;;10.17;100.00
43878;BME280;29815;48.184;11.268;2023-02-19T01:07:56;95973.88;;;10.14;100.00
43878;BME280;29815;48.184;11.268;2023-02-19T01:10:26;95968.78;;;10.17;100.00
43878;BME280;29815;48.184;11.268;2023-02-19T01:12:55;95964.72;;;10.10;100.00
43878;BME280;29815;48.184;11.268;2023-02-19T01:15:25;95965.28;;;10.12;100.00
43878;BME280;29815;48.184;11.268;2023-02-19T01:17:54;95968.47;;;10.14;100.00
43878;BME280;29815;48.184;11.268;2023-02-19T01:20:25;95965.53;;;10.15;100.00
43878;BME280;29815;48.184;11.268;2023-02-19T01:22:55;95956.66;;;10.15;100.00
43878;BME280;29815;48.184;11.268;2023-02-19T01:25:25;95957.47;;;10.15;100.00
43878;BME280;29815;48.184;11.268;2023-02-19T01:27:54;95956.09;;;10.13;100.00
43878;BME280;29815;48.184;11.268;2023-02-19T01:30:24;95949.66;;;10.09;100.00
43878;BME280;29815;48.184;11.268;2023-02-19T01:32:53;95957.19;;;10.12;100.00
43878;BME280;29815;48.184;11.268;2023-02-19T01:35:23;95946.94;;;10.09;100.00
43878;BME280;29815;48.184;11.268;2023-02-19T01:37:54;95953.16;;;10.14;100.00
43878;BME280;29815;48.184;11.268;2023-02-19T01:40:24;95950.72;;;10.08;100.00
43878;BME280;29815;48.184;11.268;2023-02-19T01:42:54;95942.09;;;10.06;100.00
43878;BME280;29815;48.184;11.268;2023-02-19T01:45:28;95945.06;;;10.09;100.00
43878;BME280;29815;48.184;11.268;2023-02-19T01:48:06;95931.84;;;10.03;100.00
43878;BME280;29815;48.184;11.268;2023-02-19T01:50:44;95947.22;;;10.07;100.00
43878;BME280;29815;48.184;11.268;2023-02-19T01:53:21;95948.28;;;10.06;100.00
43878;BME280;29815;48.184;11.268;2023-02-19T01:55:55;95934.00;;;10.06;100.00
43878;BME280;29815;48.184;11.268;2023-02-19T01:58:30;95932.44;;;10.10;100.00
43878;BME280;29815;48.184;11.268;2023-02-19T02:01:05;95935.13;;;10.10;100.00
43878;BME280;29815;48.184;11.268;2023-02-19T02:03:39;95931.84;;;10.03;100.00
43878;BME280;29815;48.184;11.268;2023-02-19T02:06:16;95937.72;;;10.00;100.00
43878;BME280;29815;48.184;11.268;2023-02-19T02:08:55;95936.47;;;10.12;100.00
43878;BME280;29815;48.184;11.268;2023-02-19T02:11:47;95927.28;;;10.03;100.00
43878;BME280;29815;48.184;11.268;2023-02-19T02:14:22;95925.09;;;10.00;100.00
43878;BME280;29815;48.184;11.268;2023-02-19T02:16:59;95920.00;;;10.04;100.00
43878;BME280;29815;48.184;11.268;2023-02-19T02:20:12;95924.28;;;10.00;100.00
43878;BME280;29815;48.184;11.268;2023-02-19T02:23:01;95917.84;;;10.01;100.00
43878;BME280;29815;48.184;11.268;2023-02-19T02:25:59;95908.56;;;9.87;100.00
43878;BME280;29815;48.184;11.268;2023-02-19T02:29:11;95915.34;;;9.94;100.00
43878;BME280;29815;48.184;11.268;2023-02-19T02:32:04;95909.94;;;9.89;100.00
43878;BME280;29815;48.184;11.268;2023-02-19T02:34:44;95898.88;;;9.85;100.00
43878;BME280;29815;48.184;11.268;2023-02-19T02:37:17;95884.66;;;9.90;100.00
43878;BME280;29815;48.184;11.268;2023-02-19T02:39:48;95910.97;;;9.83;100.00
43878;BME280;29815;48.184;11.268;2023-02-19T02:42:18;95901.06;;;9.89;100.00
43878;BME280;29815;48.184;11.268;2023-02-19T02:45:26;95906.63;;;9.77;100.00
43878;BME280;29815;48.184;11.268;2023-02-19T02:48:33;95892.69;;;9.53;100.00
43878;BME280;29815;48.184;11.268;2023-02-19T02:51:12;95886.59;;;9.36;100.00
43878;BME280;29815;48.184;11.268;2023-02-19T02:53:57;95883.03;;;9.25;100.00
43878;BME280;29815;48.184;11.268;2023-02-19T02:56:49;95881.34;;;9.19;100.00
43878;BME280;29815;48.184;11.268;2023-02-19T02:59:24;95874.28;;;9.13;100.00
43878;BME280;29815;48.184;11.268;2023-02-19T03:01:57;95867.88;;;9.14;100.00
43878;BME280;29815;48.184;11.268;2023-02-19T03:04:49;95878.34;;;9.15;100.00
43878;BME280;29815;48.184;11.268;2023-02-19T03:08:03;95878.59;;;9.14;100.00
43878;BME280;29815;48.184;11.268;2023-02-19T03:10:40;95878.59;;;9.14;100.00
43878;BME280;29815;48.184;11.268;2023-02-19T03:13:19;95871.25;;;9.04;100.00
43878;BME280;29815;48.184;11.268;2023-02-19T03:16:14;95870.34;;;8.94;100.00
43878;BME280;29815;48.184;11.268;2023-02-19T03:19:05;95883.63;;;8.83;100.00
43878;BME280;29815;48.184;11.268;2023-02-19T03:21:56;95881.19;;;8.82;100.00
43878;BME280;29815;48.184;11.268;2023-02-19T03:24:31;95862.34;;;8.77;100.00
43878;BME280;29815;48.184;11.268;2023-02-19T03:27:21;95864.03;;;8.61;100.00
43878;BME280;29815;48.184;11.268;2023-02-19T03:29:57;95862.03;;;8.52;100.00
43878;BME280;29815;48.184;11.268;2023-02-19T03:32:35;95864.03;;;8.39;100.00
43878;BME280;29815;48.184;11.268;2023-02-19T03:35:12;95865.84;;;8.34;100.00
43878;BME280;29815;48.184;11.268;2023-02-19T03:37:51;95870.59;;;8.32;100.00
43878;BME280;29815;48.184;11.268;2023-02-19T03:40:28;95856.22;;;8.21;100.00
43878;BME280;29815;48.184;11.268;2023-02-19T03:43:06;95866.03;;;8.10;100.00
43878;BME280;29815;48.184;11.268;2023-02-19T03:45:52;95862.94;;;8.02;100.00
43878;BME280;29815;48.184;11.268;2023-02-19T03:48:31;95859.19;;;8.03;100.00
43878;BME280;29815;48.184;11.268;2023-02-19T03:51:18;95869.28;;;7.96;100.00
43878;BME280;29815;48.184;11.268;2023-02-19T03:54:04;95861.44;;;7.89;100.00
43878;BME280;29815;48.184;11.268;2023-02-19T03:56:45;95865.41;;;7.87;100.00
43878;BME280;29815;48.184;11.268;2023-02-19T03:59:24;95880.81;;;7.79;100.00
43878;BME280;29815;48.184;11.268;2023-02-19T04:02:00;95862.56;;;7.76;100.00
43878;BME280;29815;48.184;11.268;2023-02-19T04:04:36;95855.25;;;7.72;100.00
43878;BME280;29815;48.184;11.268;2023-02-19T04:07:09;95850.78;;;7.77;100.00
43878;BME280;29815;48.184;11.268;2023-02-19T22:44:56;96542.00;;;7.06;100.00
43878;BME280;29815;48.184;11.268;2023-02-19T22:47:27;96533.44;;;6.97;100.00
43878;BME280;29815;48.184;11.268;2023-02-19T22:49:56;96536.28;;;7.02;100.00
43878;BME280;29815;48.184;11.268;2023-02-19T22:52:26;96530.53;;;6.99;100.00
43878;BME280;29815;48.184;11.268;2023-02-19T22:54:56;96535.44;;;7.02;100.00
43878;BME280;29815;48.184;11.268;2023-02-19T22:57:27;96530.53;;;6.99;100.00
43878;BME280;29815;48.184;11.268;2023-02-19T22:59:58;96542.06;;;6.99;100.00
43878;BME280;29815;48.184;11.268;2023-02-19T23:02:27;96548.00;;;7.01;100.00
43878;BME280;29815;48.184;11.268;2023-02-19T23:04:57;96548.09;;;6.95;100.00
43878;BME280;29815;48.184;11.268;2023-02-19T23:07:27;96554.03;;;6.97;100.00
43878;BME280;29815;48.184;11.268;2023-02-19T23:09:56;96563.47;;;6.99;100.00
43878;BME280;29815;48.184;11.268;2023-02-19T23:12:26;96572.31;;;7.00;100.00
43878;BME280;29815;48.184;11.268;2023-02-19T23:14:57;96567.63;;;6.95;100.00
43878;BME280;29815;48.184;11.268;2023-02-19T23:17:26;96570.25;;;7.02;100.00
43878;BME280;29815;48.184;11.268;2023-02-19T23:19:56;96576.25;;;6.97;100.00
43878;BME280;29815;48.184;11.268;2023-02-19T23:22:26;96573.59;;;6.97;100.00
43878;BME280;29815;48.184;11.268;2023-02-19T23:24:57;96580.78;;;6.97;100.00
43878;BME280;29815;48.184;11.268;2023-02-19T23:27:26;96574.53;;;6.85;100.00
43878;BME280;29815;48.184;11.268;2023-02-19T23:29:58;96573.41;;;6.92;100.00
43878;BME280;29815;48.184;11.268;2023-02-19T23:32:27;96568.50;;;6.89;100.00
43878;BME280;29815;48.184;11.268;2023-02-19T23:34:57;96574.78;;;6.83;100.00
43878;BME280;29815;48.184;11.268;2023-02-19T23:37:27;96577.19;;;6.85;100.00
43878;BME280;29815;48.184;11.268;2023-02-19T23:39:56;96576.63;;;6.83;100.00
43878;BME280;29815;48.184;11.268;2023-02-19T23:42:27;96579.06;;;6.84;100.00
43878;BME280;29815;48.184;11.268;2023-02-19T23:44:58;96573.66;;;6.91;100.00
43878;BME280;29815;48.184;11.268;2023-02-19T23:47:28;96573.03;;;6.89;100.00
43878;BME280;29815;48.184;11.268;2023-02-19T23:49:57;96573.25;;;6.87;100.00
43878;BME280;29815;48.184;11.268;2023-02-19T23:52:27;96578.28;;;6.84;100.00
43878;BME280;29815;48.184;11.268;2023-02-19T23:54:57;96575.81;;;6.82;100.00
43878;BME280;29815;48.184;11.268;2023-02-19T23:57:27;96571.63;;;6.86;100.00
43878;BME280;29815;48.184;11.268;2023-02-19T23:59:58;96575.59;;;6.84;100.00
